createdAt,value
2016-10-22T00:00:02.472Z,18.52
2016-10-22T00:00:19.220Z,18.4
2016-10-22T00:00:36.062Z,18.4
2016-10-22T00:00:52.871Z,18.34
2016-10-22T00:01:09.615Z,18.49
2016-10-22T00:01:26.392Z,18.46
2016-10-22T00:01:43.163Z,18.37
2016-10-22T00:01:59.942Z,18.35
2016-10-22T00:02:16.687Z,18.27
2016-10-22T00:02:33.451Z,18.32
2016-10-22T00:02:50.209Z,18.27
2016-10-22T00:03:06.927Z,18.25
2016-10-22T00:03:23.650Z,18.4
2016-10-22T00:03:40.383Z,18.31
2016-10-22T00:03:57.093Z,18.46
2016-10-22T00:04:13.855Z,18.39
2016-10-22T00:04:30.655Z,18.39
2016-10-22T00:04:47.381Z,18.42
2016-10-22T00:05:04.646Z,18.34
2016-10-22T00:05:21.913Z,18.49
2016-10-22T00:05:38.644Z,18.53
2016-10-22T00:05:55.352Z,18.4
2016-10-22T00:06:12.061Z,18.52
2016-10-22T00:06:28.860Z,18.5
2016-10-22T00:06:45.683Z,18.52
2016-10-22T00:07:02.384Z,18.46
2016-10-22T00:07:19.145Z,18.49
2016-10-22T00:07:35.910Z,18.44
2016-10-22T00:07:52.653Z,18.5
2016-10-22T00:08:09.398Z,18.5
2016-10-22T00:08:26.653Z,18.43
2016-10-22T00:08:43.396Z,18.32
2016-10-22T00:09:00.121Z,18.4
2016-10-22T00:09:16.863Z,18.22
2016-10-22T00:09:33.591Z,18.25
2016-10-22T00:09:50.337Z,18.27
2016-10-22T00:10:07.106Z,18.34
2016-10-22T00:10:23.877Z,18.34
2016-10-22T00:10:40.588Z,18.31
2016-10-22T00:10:57.331Z,18.34
2016-10-22T00:11:14.082Z,18.39
2016-10-22T00:11:30.831Z,18.37
2016-10-22T00:11:47.684Z,18.5
2016-10-22T00:12:04.931Z,18.35
2016-10-22T00:12:21.674Z,18.39
2016-10-22T00:12:38.411Z,18.43
2016-10-22T00:12:55.134Z,18.35
2016-10-22T00:13:11.899Z,18.4
2016-10-22T00:13:28.622Z,18.31
2016-10-22T00:13:45.434Z,18.44
2016-10-22T00:14:02.177Z,18.42
2016-10-22T00:14:18.934Z,18.44
2016-10-22T00:14:35.670Z,18.46
2016-10-22T00:14:52.393Z,18.55
2016-10-22T00:15:09.123Z,18.59
2016-10-22T00:15:25.858Z,18.53
2016-10-22T00:15:42.641Z,18.49
2016-10-22T00:15:59.396Z,18.43
2016-10-22T00:16:16.123Z,18.55
2016-10-22T00:16:32.879Z,18.55
2016-10-22T00:16:49.611Z,18.59
2016-10-22T00:17:06.329Z,18.62
2016-10-22T00:17:23.049Z,18.58
2016-10-22T00:17:39.768Z,18.43
2016-10-22T00:17:56.499Z,18.49
2016-10-22T00:18:13.251Z,18.53
2016-10-22T00:18:29.996Z,18.58
2016-10-22T00:18:46.739Z,18.58
2016-10-22T00:19:03.568Z,18.5
2016-10-22T00:19:20.300Z,18.59
2016-10-22T00:19:37.028Z,18.53
2016-10-22T00:19:53.764Z,18.58
2016-10-22T00:20:10.487Z,18.61
2016-10-22T00:20:27.278Z,18.73
2016-10-22T00:20:44.034Z,18.57
2016-10-22T00:21:00.791Z,18.62
2016-10-22T00:21:17.541Z,18.68
2016-10-22T00:21:34.294Z,18.62
2016-10-22T00:21:51.125Z,18.64
2016-10-22T00:22:07.853Z,18.62
2016-10-22T00:22:24.637Z,18.77
2016-10-22T00:22:41.382Z,18.67
2016-10-22T00:22:58.090Z,18.64
2016-10-22T00:23:14.865Z,18.61
2016-10-22T00:23:31.575Z,18.67
2016-10-22T00:23:48.302Z,18.71
2016-10-22T00:24:05.044Z,18.62
2016-10-22T00:24:21.770Z,18.71
2016-10-22T00:24:38.474Z,18.71
2016-10-22T00:24:55.248Z,18.71
2016-10-22T00:25:11.969Z,18.65
2016-10-22T00:25:28.680Z,18.73
2016-10-22T00:25:45.382Z,18.58
2016-10-22T00:26:02.338Z,18.65
2016-10-22T00:26:19.048Z,18.71
2016-10-22T00:26:35.752Z,18.61
2016-10-22T00:26:52.828Z,18.59
2016-10-22T00:27:09.537Z,18.62
2016-10-22T00:27:26.750Z,18.67
2016-10-22T00:27:43.454Z,18.61
2016-10-22T00:28:00.187Z,18.61
2016-10-22T00:28:16.909Z,18.62
2016-10-22T00:28:33.690Z,18.53
2016-10-22T00:28:50.405Z,18.46
2016-10-22T00:29:07.130Z,18.37
2016-10-22T00:29:23.840Z,18.37
2016-10-22T00:29:40.576Z,18.4
2016-10-22T00:29:57.383Z,18.35
2016-10-22T00:30:14.206Z,18.31
2016-10-22T00:30:30.903Z,18.42
2016-10-22T00:30:47.625Z,18.43
2016-10-22T00:31:04.322Z,18.29
2016-10-22T00:31:21.032Z,18.35
2016-10-22T00:31:37.745Z,18.42
2016-10-22T00:31:54.472Z,18.37
2016-10-22T00:32:11.184Z,18.47
2016-10-22T00:32:27.938Z,18.43
2016-10-22T00:32:44.710Z,18.46
2016-10-22T00:33:01.463Z,18.44
2016-10-22T00:33:18.178Z,18.53
2016-10-22T00:33:34.886Z,18.5
2016-10-22T00:33:51.585Z,18.49
2016-10-22T00:34:08.293Z,18.55
2016-10-22T00:34:24.993Z,18.59
2016-10-22T00:34:41.693Z,18.59
2016-10-22T00:34:58.413Z,18.24
2016-10-22T00:35:15.130Z,18.49
2016-10-22T00:35:32.359Z,18.44
2016-10-22T00:35:49.146Z,18.4
2016-10-22T00:36:05.915Z,18.37
2016-10-22T00:36:22.625Z,18.35
2016-10-22T00:36:39.337Z,18.24
2016-10-22T00:36:56.057Z,18.37
2016-10-22T00:37:12.772Z,18.43
2016-10-22T00:37:29.492Z,18.35
2016-10-22T00:37:46.231Z,18.39
2016-10-22T00:38:02.950Z,18.4
2016-10-22T00:38:19.659Z,18.4
2016-10-22T00:38:36.380Z,18.29
2016-10-22T00:38:53.208Z,18.35
2016-10-22T00:39:09.900Z,18.4
2016-10-22T00:39:26.642Z,18.4
2016-10-22T00:39:43.402Z,18.43
2016-10-22T00:40:00.192Z,18.31
2016-10-22T00:40:16.933Z,18.31
2016-10-22T00:40:33.658Z,18.37
2016-10-22T00:40:50.450Z,18.43
2016-10-22T00:41:07.192Z,18.39
2016-10-22T00:41:23.963Z,18.35
2016-10-22T00:41:41.203Z,18.25
2016-10-22T00:41:58.049Z,18.25
2016-10-22T00:42:14.780Z,18.34
2016-10-22T00:42:31.548Z,18.37
2016-10-22T00:42:48.282Z,18.31
2016-10-22T00:43:04.993Z,18.29
2016-10-22T00:43:21.714Z,18.39
2016-10-22T00:43:38.959Z,18.29
2016-10-22T00:43:55.711Z,18.19
2016-10-22T00:44:12.482Z,18.24
2016-10-22T00:44:29.231Z,18.27
2016-10-22T00:44:45.942Z,18.34
2016-10-22T00:45:02.919Z,18.4
2016-10-22T00:45:19.699Z,18.22
2016-10-22T00:45:36.449Z,18.24
2016-10-22T00:45:53.214Z,18.19
2016-10-22T00:46:09.931Z,18.32
2016-10-22T00:46:26.655Z,18.4
2016-10-22T00:46:43.371Z,18.39
2016-10-22T00:47:00.109Z,18.34
2016-10-22T00:47:16.834Z,18.39
2016-10-22T00:47:33.639Z,18.4
2016-10-22T00:47:50.961Z,18.29
2016-10-22T00:48:07.718Z,18.24
2016-10-22T00:48:24.445Z,18.32
2016-10-22T00:48:41.682Z,18.31
2016-10-22T00:48:58.492Z,18.25
2016-10-22T00:49:15.211Z,18.28
2016-10-22T00:49:31.962Z,18.25
2016-10-22T00:49:48.689Z,18.25
2016-10-22T00:50:05.438Z,18.34
2016-10-22T00:50:22.208Z,18.24
2016-10-22T00:50:38.932Z,18.32
2016-10-22T00:50:56.156Z,18.16
2016-10-22T00:51:12.932Z,18.24
2016-10-22T00:51:29.684Z,18.32
2016-10-22T00:51:46.442Z,18.24
2016-10-22T00:52:03.347Z,18.27
2016-10-22T00:52:20.123Z,18.22
2016-10-22T00:52:36.891Z,18.29
2016-10-22T00:52:53.635Z,18.28
2016-10-22T00:53:10.418Z,18.13
2016-10-22T00:53:27.180Z,18.18
2016-10-22T00:53:44.103Z,18.1
2016-10-22T00:54:01.091Z,18.11
2016-10-22T00:54:17.820Z,18.19
2016-10-22T00:54:34.609Z,18.14
2016-10-22T00:54:51.652Z,18.18
2016-10-22T00:55:08.586Z,18.13
2016-10-22T00:55:25.380Z,18.22
2016-10-22T00:55:42.217Z,18.18
2016-10-22T00:55:59.001Z,18.16
2016-10-22T00:56:15.893Z,18.18
2016-10-22T00:56:32.724Z,18.13
2016-10-22T00:56:49.530Z,18.16
2016-10-22T00:57:07.071Z,18.04
2016-10-22T00:57:23.790Z,18.03
2016-10-22T00:57:40.509Z,18.1
2016-10-22T00:57:57.255Z,18.19
2016-10-22T00:58:14.028Z,18.16
2016-10-22T00:58:30.792Z,18.11
2016-10-22T00:58:47.533Z,18.16
2016-10-22T00:59:04.270Z,18.18
2016-10-22T00:59:20.999Z,18.14
2016-10-22T00:59:37.721Z,18.14
2016-10-22T00:59:54.437Z,17.94
2016-10-22T01:00:11.172Z,18
2016-10-22T01:00:27.952Z,18.09
2016-10-22T01:00:44.740Z,18.07
2016-10-22T01:01:01.463Z,18.14
2016-10-22T01:01:18.208Z,18.18
2016-10-22T01:01:34.961Z,18.24
2016-10-22T01:01:51.697Z,18.14
2016-10-22T01:02:08.433Z,18.24
2016-10-22T01:02:25.177Z,18.29
2016-10-22T01:02:41.905Z,18.27
2016-10-22T01:02:58.658Z,18.25
2016-10-22T01:03:15.409Z,18.25
2016-10-22T01:03:32.132Z,18.24
2016-10-22T01:03:48.867Z,18.27
2016-10-22T01:04:05.598Z,18.27
2016-10-22T01:04:22.331Z,18.28
2016-10-22T01:04:39.068Z,18.32
2016-10-22T01:04:55.775Z,18.32
2016-10-22T01:05:12.497Z,18.29
2016-10-22T01:05:29.237Z,18.24
2016-10-22T01:05:45.975Z,18.31
2016-10-22T01:06:02.708Z,18.31
2016-10-22T01:06:19.473Z,18.31
2016-10-22T01:06:36.224Z,18.34
2016-10-22T01:06:52.971Z,18.16
2016-10-22T01:07:09.817Z,18.14
2016-10-22T01:07:26.555Z,18.14
2016-10-22T01:07:43.301Z,18.18
2016-10-22T01:08:00.061Z,18.21
2016-10-22T01:08:16.788Z,18.18
2016-10-22T01:08:33.516Z,18.19
2016-10-22T01:08:50.259Z,18.21
2016-10-22T01:09:07.026Z,18.14
2016-10-22T01:09:23.775Z,18.13
2016-10-22T01:09:40.531Z,18.11
2016-10-22T01:09:57.274Z,18.16
2016-10-22T01:10:14.017Z,18.13
2016-10-22T01:10:30.790Z,18.14
2016-10-22T01:10:47.549Z,18.22
2016-10-22T01:11:04.344Z,18.19
2016-10-22T01:11:21.560Z,18.27
2016-10-22T01:11:38.277Z,18.21
2016-10-22T01:11:55.005Z,18.24
2016-10-22T01:12:11.807Z,18.22
2016-10-22T01:12:29.055Z,18.32
2016-10-22T01:12:46.314Z,18.29
2016-10-22T01:13:03.045Z,18.22
2016-10-22T01:13:19.784Z,18.28
2016-10-22T01:13:36.528Z,18.27
2016-10-22T01:13:53.797Z,18.31
2016-10-22T01:14:10.567Z,18.24
2016-10-22T01:14:27.263Z,18.28
2016-10-22T01:14:44.042Z,18.28
2016-10-22T01:15:00.814Z,18.37
2016-10-22T01:15:17.664Z,18.35
2016-10-22T01:15:34.511Z,18.32
2016-10-22T01:15:51.828Z,18.34
2016-10-22T01:16:08.621Z,18.35
2016-10-22T01:16:25.354Z,18.39
2016-10-22T01:16:42.089Z,18.27
2016-10-22T01:16:58.838Z,18.34
2016-10-22T01:17:15.569Z,18.28
2016-10-22T01:17:32.323Z,18.24
2016-10-22T01:17:49.052Z,18.25
2016-10-22T01:18:05.786Z,18.31
2016-10-22T01:18:22.515Z,18.28
2016-10-22T01:18:39.269Z,18.34
2016-10-22T01:19:10.524Z,18.21
2016-10-22T01:19:27.331Z,18.28
2016-10-22T01:19:44.656Z,18.35
2016-10-22T01:20:01.473Z,18.37
2016-10-22T01:20:18.381Z,18.25
2016-10-22T01:20:35.132Z,18.4
2016-10-22T01:20:51.911Z,18.46
2016-10-22T01:21:08.674Z,18.24
2016-10-22T01:21:25.448Z,18.24
2016-10-22T01:21:42.156Z,18.24
2016-10-22T01:21:58.857Z,18.27
2016-10-22T01:22:16.192Z,18.27
2016-10-22T01:22:32.939Z,18.31
2016-10-22T01:22:49.682Z,18.19
2016-10-22T01:23:06.409Z,18.27
2016-10-22T01:23:23.123Z,18.27
2016-10-22T01:23:39.859Z,18.18
2016-10-22T01:23:56.599Z,18.21
2016-10-22T01:24:13.302Z,18.31
2016-10-22T01:24:30.016Z,18.29
2016-10-22T01:24:46.734Z,18.31
2016-10-22T01:25:03.457Z,18.35
2016-10-22T01:25:20.222Z,18.29
2016-10-22T01:25:36.926Z,18.27
2016-10-22T01:25:53.632Z,18.27
2016-10-22T01:26:10.361Z,18.28
2016-10-22T01:26:27.072Z,18.27
2016-10-22T01:26:43.768Z,18.13
2016-10-22T01:27:00.510Z,18.24
2016-10-22T01:27:17.808Z,18.19
2016-10-22T01:27:34.518Z,18.28
2016-10-22T01:27:51.277Z,18.21
2016-10-22T01:28:07.995Z,18.27
2016-10-22T01:28:24.695Z,18.25
2016-10-22T01:28:41.698Z,18.07
2016-10-22T01:28:58.404Z,18.21
2016-10-22T01:29:15.132Z,18.19
2016-10-22T01:29:31.850Z,18.22
2016-10-22T01:29:48.556Z,18.27
2016-10-22T01:30:05.291Z,18.16
2016-10-22T01:30:22.013Z,18.22
2016-10-22T01:30:38.721Z,18.31
2016-10-22T01:30:55.423Z,18.21
2016-10-22T01:31:12.137Z,18.21
2016-10-22T01:31:28.837Z,18.28
2016-10-22T01:31:45.621Z,18.25
2016-10-22T01:32:02.393Z,18.29
2016-10-22T01:32:19.147Z,18.31
2016-10-22T01:32:35.917Z,18.39
2016-10-22T01:32:52.633Z,18.29
2016-10-22T01:33:09.392Z,18.4
2016-10-22T01:33:26.101Z,18.35
2016-10-22T01:33:42.839Z,18.31
2016-10-22T01:33:59.567Z,18.35
2016-10-22T01:34:16.299Z,18.39
2016-10-22T01:34:33.051Z,18.42
2016-10-22T01:34:49.807Z,18.35
2016-10-22T01:35:06.598Z,18.46
2016-10-22T01:35:23.318Z,18.37
2016-10-22T01:35:40.068Z,18.46
2016-10-22T01:35:56.807Z,18.5
2016-10-22T01:36:13.547Z,18.55
2016-10-22T01:36:30.299Z,18.47
2016-10-22T01:36:47.053Z,18.46
2016-10-22T01:37:03.838Z,18.5
2016-10-22T01:37:20.562Z,18.5
2016-10-22T01:37:37.282Z,18.4
2016-10-22T01:37:54.018Z,18.53
2016-10-22T01:38:10.766Z,18.47
2016-10-22T01:38:27.511Z,18.42
2016-10-22T01:38:44.235Z,18.49
2016-10-22T01:39:00.956Z,18.35
2016-10-22T01:39:17.694Z,18.44
2016-10-22T01:39:34.432Z,18.49
2016-10-22T01:39:51.191Z,18.59
2016-10-22T01:40:07.935Z,18.58
2016-10-22T01:40:24.675Z,18.52
2016-10-22T01:40:41.471Z,18.47
2016-10-22T01:40:58.219Z,18.49
2016-10-22T01:41:14.934Z,18.42
2016-10-22T01:41:31.681Z,18.64
2016-10-22T01:41:48.409Z,18.53
2016-10-22T01:42:05.156Z,18.47
2016-10-22T01:42:21.997Z,18.42
2016-10-22T01:42:38.760Z,18.46
2016-10-22T01:42:55.828Z,18.52
2016-10-22T01:43:12.935Z,18.53
2016-10-22T01:43:29.758Z,18.5
2016-10-22T01:43:46.481Z,18.57
2016-10-22T01:44:03.314Z,18.67
2016-10-22T01:44:20.309Z,18.55
2016-10-22T01:44:37.370Z,18.53
2016-10-22T01:44:54.075Z,18.57
2016-10-22T01:45:10.820Z,18.61
2016-10-22T01:45:28.118Z,18.73
2016-10-22T01:45:44.842Z,18.61
2016-10-22T01:46:01.551Z,18.58
2016-10-22T01:46:18.294Z,18.47
2016-10-22T01:46:35.076Z,18.61
2016-10-22T01:46:51.847Z,18.61
2016-10-22T01:47:08.625Z,18.59
2016-10-22T01:47:25.460Z,18.64
2016-10-22T01:47:42.356Z,18.58
2016-10-22T01:47:59.691Z,18.58
2016-10-22T01:48:16.475Z,18.73
2016-10-22T01:48:33.290Z,18.73
2016-10-22T01:48:50.104Z,18.59
2016-10-22T01:49:06.904Z,18.62
2016-10-22T01:49:23.635Z,18.65
2016-10-22T01:49:40.396Z,18.68
2016-10-22T01:49:57.232Z,18.5
2016-10-22T01:50:14.591Z,18.52
2016-10-22T01:50:31.400Z,18.59
2016-10-22T01:50:48.159Z,18.55
2016-10-22T01:51:04.888Z,18.55
2016-10-22T01:51:21.634Z,18.53
2016-10-22T01:51:38.383Z,18.43
2016-10-22T01:51:55.166Z,18.46
2016-10-22T01:52:11.941Z,18.35
2016-10-22T01:52:28.847Z,18.22
2016-10-22T01:52:45.576Z,18.29
2016-10-22T01:53:02.333Z,18.28
2016-10-22T01:53:19.148Z,18.34
2016-10-22T01:53:35.903Z,18.4
2016-10-22T01:53:52.627Z,18.32
2016-10-22T01:54:09.889Z,18.32
2016-10-22T01:54:26.673Z,18.25
2016-10-22T01:54:43.478Z,18.34
2016-10-22T01:55:00.217Z,18.4
2016-10-22T01:55:17.438Z,18.35
2016-10-22T01:55:34.236Z,18.24
2016-10-22T01:55:50.952Z,18.29
2016-10-22T01:56:07.694Z,18.29
2016-10-22T01:56:24.423Z,18.39
2016-10-22T01:56:41.174Z,18.34
2016-10-22T01:56:58.523Z,18.18
2016-10-22T01:57:15.286Z,18.18
2016-10-22T01:57:32.680Z,18.18
2016-10-22T01:57:49.435Z,18.22
2016-10-22T01:58:06.170Z,18.06
2016-10-22T01:58:22.893Z,18.1
2016-10-22T01:58:39.657Z,18.13
2016-10-22T01:58:56.389Z,18.21
2016-10-22T01:59:13.408Z,18.16
2016-10-22T01:59:30.135Z,18.24
2016-10-22T01:59:46.862Z,18.24
2016-10-22T02:00:03.614Z,18.18
2016-10-22T02:00:20.344Z,18.21
2016-10-22T02:00:37.138Z,18.14
2016-10-22T02:00:53.860Z,18.22
2016-10-22T02:01:10.611Z,18.28
2016-10-22T02:01:27.341Z,18.24
2016-10-22T02:01:44.147Z,18.18
2016-10-22T02:02:00.880Z,18.07
2016-10-22T02:02:17.622Z,18.09
2016-10-22T02:02:34.365Z,18.16
2016-10-22T02:02:51.099Z,18.04
2016-10-22T02:03:07.841Z,18.16
2016-10-22T02:03:24.558Z,18.16
2016-10-22T02:03:41.338Z,18.13
2016-10-22T02:03:58.619Z,18.14
2016-10-22T02:04:15.365Z,18.16
2016-10-22T02:04:32.127Z,18.14
2016-10-22T02:04:48.884Z,18.16
2016-10-22T02:05:05.599Z,18.04
2016-10-22T02:05:22.323Z,18.13
2016-10-22T02:05:39.649Z,18.18
2016-10-22T02:05:56.402Z,18.18
2016-10-22T02:06:13.096Z,18.14
2016-10-22T02:06:29.861Z,18.16
2016-10-22T02:06:46.640Z,18.22
2016-10-22T02:07:03.482Z,18.27
2016-10-22T02:07:20.271Z,18.25
2016-10-22T02:07:37.207Z,18.22
2016-10-22T02:07:53.942Z,18.25
2016-10-22T02:08:10.718Z,18.22
2016-10-22T02:08:27.471Z,18.27
2016-10-22T02:08:44.194Z,18.27
2016-10-22T02:09:00.948Z,18.24
2016-10-22T02:09:17.658Z,18.32
2016-10-22T02:09:34.451Z,18.24
2016-10-22T02:09:51.475Z,18.24
2016-10-22T02:10:08.258Z,18.25
2016-10-22T02:10:24.977Z,18.27
2016-10-22T02:10:41.700Z,18.11
2016-10-22T02:10:58.441Z,18.13
2016-10-22T02:11:15.188Z,18.19
2016-10-22T02:11:32.057Z,18.24
2016-10-22T02:11:48.790Z,18.19
2016-10-22T02:12:05.509Z,18.16
2016-10-22T02:12:22.238Z,18.18
2016-10-22T02:12:39.054Z,18.21
2016-10-22T02:12:55.816Z,18.1
2016-10-22T02:13:13.082Z,18.16
2016-10-22T02:13:29.838Z,18.16
2016-10-22T02:13:46.759Z,18.21
2016-10-22T02:14:03.519Z,18.25
2016-10-22T02:14:20.338Z,18.14
2016-10-22T02:14:37.087Z,18.16
2016-10-22T02:14:54.325Z,17.98
2016-10-22T02:15:11.131Z,18.02
2016-10-22T02:15:27.863Z,17.91
2016-10-22T02:15:44.663Z,17.94
2016-10-22T02:16:01.427Z,17.96
2016-10-22T02:16:18.149Z,18.07
2016-10-22T02:16:34.887Z,18.07
2016-10-22T02:16:51.612Z,18.04
2016-10-22T02:17:08.356Z,18.06
2016-10-22T02:17:25.099Z,17.96
2016-10-22T02:17:41.840Z,18
2016-10-22T02:17:58.571Z,18.03
2016-10-22T02:18:15.294Z,17.92
2016-10-22T02:18:32.052Z,17.94
2016-10-22T02:18:48.869Z,18.14
2016-10-22T02:19:05.604Z,18.06
2016-10-22T02:19:22.329Z,17.94
2016-10-22T02:19:39.073Z,17.94
2016-10-22T02:19:56.258Z,17.94
2016-10-22T02:20:13.071Z,17.92
2016-10-22T02:20:29.826Z,17.92
2016-10-22T02:20:46.586Z,17.96
2016-10-22T02:21:03.296Z,17.92
2016-10-22T02:21:20.019Z,17.92
2016-10-22T02:21:36.795Z,17.89
2016-10-22T02:21:53.538Z,17.98
2016-10-22T02:22:10.271Z,17.95
2016-10-22T02:22:27.032Z,17.94
2016-10-22T02:22:43.886Z,17.94
2016-10-22T02:23:00.675Z,17.95
2016-10-22T02:23:17.424Z,17.96
2016-10-22T02:23:34.193Z,17.94
2016-10-22T02:23:50.953Z,17.92
2016-10-22T02:24:07.685Z,17.92
2016-10-22T02:24:24.409Z,17.95
2016-10-22T02:24:41.159Z,18.02
2016-10-22T02:24:57.891Z,17.95
2016-10-22T02:25:15.388Z,18.06
2016-10-22T02:25:32.153Z,18.11
2016-10-22T02:25:48.926Z,18.07
2016-10-22T02:26:05.697Z,18.09
2016-10-22T02:26:36.930Z,18.1
2016-10-22T02:26:54.202Z,17.84
2016-10-22T02:27:10.935Z,18.02
2016-10-22T02:27:27.650Z,18.11
2016-10-22T02:27:45.168Z,17.92
2016-10-22T02:28:01.968Z,17.94
2016-10-22T02:28:18.747Z,18.03
2016-10-22T02:28:35.742Z,17.95
2016-10-22T02:28:52.493Z,17.96
2016-10-22T02:29:09.235Z,17.96
2016-10-22T02:29:25.998Z,17.95
2016-10-22T02:29:42.790Z,17.94
2016-10-22T02:29:59.760Z,17.92
2016-10-22T02:30:16.489Z,17.95
2016-10-22T02:30:33.302Z,17.96
2016-10-22T02:30:50.530Z,17.96
2016-10-22T02:31:07.278Z,18.06
2016-10-22T02:31:24.006Z,18.14
2016-10-22T02:31:40.723Z,18.09
2016-10-22T02:31:57.974Z,18.13
2016-10-22T02:32:14.719Z,18.1
2016-10-22T02:32:31.479Z,18.11
2016-10-22T02:32:48.424Z,18.03
2016-10-22T02:33:05.188Z,18.16
2016-10-22T02:33:21.951Z,18.19
2016-10-22T02:33:39.208Z,18.18
2016-10-22T02:33:55.913Z,18.19
2016-10-22T02:34:12.646Z,18.16
2016-10-22T02:34:29.372Z,18.16
2016-10-22T02:34:46.090Z,18.22
2016-10-22T02:35:02.831Z,18.16
2016-10-22T02:35:19.581Z,18.11
2016-10-22T02:35:36.329Z,18.11
2016-10-22T02:35:53.074Z,18.14
2016-10-22T02:36:10.314Z,17.96
2016-10-22T02:36:27.056Z,17.96
2016-10-22T02:36:43.810Z,18.09
2016-10-22T02:37:00.556Z,18.16
2016-10-22T02:37:17.280Z,17.98
2016-10-22T02:37:34.056Z,18
2016-10-22T02:37:50.876Z,18.03
2016-10-22T02:38:07.616Z,18.06
2016-10-22T02:38:24.384Z,18.11
2016-10-22T02:38:41.136Z,18.14
2016-10-22T02:38:57.881Z,18.19
2016-10-22T02:39:14.622Z,18.21
2016-10-22T02:39:31.411Z,18.24
2016-10-22T02:39:48.207Z,18.22
2016-10-22T02:40:04.983Z,18.18
2016-10-22T02:40:21.709Z,18.14
2016-10-22T02:40:38.452Z,18.18
2016-10-22T02:40:55.189Z,18.19
2016-10-22T02:41:11.934Z,18.18
2016-10-22T02:41:28.691Z,18.11
2016-10-22T02:41:45.420Z,18.11
2016-10-22T02:42:02.165Z,18.14
2016-10-22T02:42:19.412Z,18.11
2016-10-22T02:42:36.162Z,18.16
2016-10-22T02:42:52.975Z,18.14
2016-10-22T02:43:09.753Z,18.16
2016-10-22T02:43:26.529Z,18.1
2016-10-22T02:43:43.327Z,18.13
2016-10-22T02:44:00.082Z,18.25
2016-10-22T02:44:16.831Z,18.27
2016-10-22T02:44:33.588Z,18.14
2016-10-22T02:44:50.335Z,18.25
2016-10-22T02:45:07.073Z,18.24
2016-10-22T02:45:23.809Z,18.24
2016-10-22T02:45:40.539Z,18.14
2016-10-22T02:45:57.266Z,18.18
2016-10-22T02:46:13.996Z,18.18
2016-10-22T02:46:30.770Z,18.11
2016-10-22T02:46:47.498Z,18.1
2016-10-22T02:47:04.246Z,18.1
2016-10-22T02:47:21.007Z,18.21
2016-10-22T02:47:37.760Z,18.24
2016-10-22T02:47:54.480Z,18.16
2016-10-22T02:48:11.723Z,18.07
2016-10-22T02:48:28.486Z,18.03
2016-10-22T02:48:45.218Z,18.11
2016-10-22T02:49:02.004Z,18.1
2016-10-22T02:49:18.744Z,18.02
2016-10-22T02:49:35.458Z,18.07
2016-10-22T02:49:52.194Z,18.16
2016-10-22T02:50:08.951Z,18.1
2016-10-22T02:50:25.715Z,18.16
2016-10-22T02:50:42.451Z,18.16
2016-10-22T02:50:59.198Z,18.25
2016-10-22T02:51:15.925Z,18.18
2016-10-22T02:51:32.703Z,18.18
2016-10-22T02:51:49.424Z,18.06
2016-10-22T02:52:06.156Z,18.07
2016-10-22T02:52:22.903Z,18.14
2016-10-22T02:52:39.714Z,18.13
2016-10-22T02:52:56.571Z,18.09
2016-10-22T02:53:13.309Z,18.14
2016-10-22T02:53:30.064Z,18.07
2016-10-22T02:53:46.789Z,18.1
2016-10-22T02:54:03.527Z,18.18
2016-10-22T02:54:20.252Z,18.11
2016-10-22T02:54:36.954Z,18.18
2016-10-22T02:54:53.675Z,18.18
2016-10-22T02:55:10.419Z,18.22
2016-10-22T02:55:27.237Z,18.24
2016-10-22T02:55:43.986Z,18.24
2016-10-22T02:56:00.800Z,18.18
2016-10-22T02:56:17.616Z,18.27
2016-10-22T02:56:34.366Z,18.13
2016-10-22T02:56:51.119Z,17.96
2016-10-22T02:57:07.828Z,17.98
2016-10-22T02:57:24.579Z,18.06
2016-10-22T02:57:41.338Z,18.09
2016-10-22T02:57:58.427Z,18.06
2016-10-22T02:58:15.170Z,18.06
2016-10-22T02:58:31.917Z,17.94
2016-10-22T02:58:48.652Z,17.95
2016-10-22T02:59:05.391Z,18.13
2016-10-22T02:59:22.123Z,18.13
2016-10-22T02:59:38.860Z,17.96
2016-10-22T02:59:55.607Z,17.96
2016-10-22T03:00:12.333Z,17.96
2016-10-22T03:00:29.103Z,17.95
2016-10-22T03:00:48.738Z,17.92
2016-10-22T03:01:05.486Z,18.04
2016-10-22T03:01:22.724Z,18.04
2016-10-22T03:01:39.995Z,18.07
2016-10-22T03:01:56.722Z,18.1
2016-10-22T03:02:13.473Z,18.16
2016-10-22T03:02:30.205Z,18.21
2016-10-22T03:02:46.926Z,18.1
2016-10-22T03:03:03.675Z,18.16
2016-10-22T03:03:20.426Z,18.11
2016-10-22T03:03:37.210Z,18.13
2016-10-22T03:03:53.951Z,18.16
2016-10-22T03:04:10.716Z,18.19
2016-10-22T03:04:27.438Z,18.18
2016-10-22T03:04:44.150Z,18.19
2016-10-22T03:05:00.857Z,18.22
2016-10-22T03:05:17.583Z,18.25
2016-10-22T03:05:34.300Z,18.16
2016-10-22T03:05:51.038Z,18.11
2016-10-22T03:06:07.793Z,18.25
2016-10-22T03:06:24.542Z,18.14
2016-10-22T03:06:41.328Z,18.13
2016-10-22T03:06:58.607Z,18.03
2016-10-22T03:07:15.336Z,18.21
2016-10-22T03:07:32.072Z,18.24
2016-10-22T03:07:48.830Z,18.24
2016-10-22T03:08:05.594Z,18.14
2016-10-22T03:08:22.320Z,18.11
2016-10-22T03:08:39.070Z,18.14
2016-10-22T03:08:55.796Z,18.03
2016-10-22T03:09:12.545Z,18.16
2016-10-22T03:09:29.293Z,18.24
2016-10-22T03:09:46.100Z,18.16
2016-10-22T03:10:34.083Z,18.19
2016-10-22T03:10:50.841Z,18.11
2016-10-22T03:11:07.577Z,18.1
2016-10-22T03:11:24.304Z,18.14
2016-10-22T03:11:41.040Z,18.13
2016-10-22T03:11:57.800Z,18.07
2016-10-22T03:12:14.560Z,18.1
2016-10-22T03:12:31.269Z,18.04
2016-10-22T03:12:47.992Z,18.03
2016-10-22T03:13:04.725Z,18.14
2016-10-22T03:13:21.475Z,18.1
2016-10-22T03:13:38.275Z,18.16
2016-10-22T03:13:55.025Z,18.09
2016-10-22T03:14:11.779Z,18.11
2016-10-22T03:14:28.519Z,18.1
2016-10-22T03:14:45.296Z,18.1
2016-10-22T03:15:02.569Z,17.96
2016-10-22T03:15:19.314Z,17.88
2016-10-22T03:15:36.037Z,18.09
2016-10-22T03:15:52.756Z,17.92
2016-10-22T03:16:10.003Z,17.92
2016-10-22T03:16:26.750Z,17.98
2016-10-22T03:16:43.488Z,17.96
2016-10-22T03:17:00.216Z,17.95
2016-10-22T03:17:16.965Z,17.94
2016-10-22T03:17:33.684Z,17.94
2016-10-22T03:17:50.550Z,18.1
2016-10-22T03:18:07.271Z,18.03
2016-10-22T03:18:23.983Z,18.11
2016-10-22T03:18:40.725Z,18.06
2016-10-22T03:18:57.425Z,17.89
2016-10-22T03:19:14.180Z,17.85
2016-10-22T03:19:30.934Z,17.95
2016-10-22T03:19:47.684Z,17.94
2016-10-22T03:20:04.400Z,17.91
2016-10-22T03:20:21.140Z,17.74
2016-10-22T03:20:37.871Z,17.67
2016-10-22T03:20:54.608Z,17.88
2016-10-22T03:21:11.354Z,17.85
2016-10-22T03:21:28.094Z,17.88
2016-10-22T03:21:44.808Z,17.94
2016-10-22T03:22:01.535Z,17.87
2016-10-22T03:22:18.259Z,17.89
2016-10-22T03:22:35.025Z,17.94
2016-10-22T03:22:51.813Z,17.87
2016-10-22T03:23:08.584Z,17.84
2016-10-22T03:23:25.322Z,17.74
2016-10-22T03:23:42.064Z,17.73
2016-10-22T03:23:58.804Z,17.85
2016-10-22T03:24:15.543Z,17.82
2016-10-22T03:24:32.333Z,17.87
2016-10-22T03:24:49.081Z,17.87
2016-10-22T03:25:20.320Z,17.95
2016-10-22T03:25:37.056Z,17.92
2016-10-22T03:25:53.788Z,17.94
2016-10-22T03:26:10.548Z,17.82
2016-10-22T03:26:27.296Z,17.79
2016-10-22T03:26:44.037Z,17.92
2016-10-22T03:27:00.783Z,17.84
2016-10-22T03:27:17.533Z,17.94
2016-10-22T03:27:34.261Z,17.94
2016-10-22T03:27:51.107Z,17.73
2016-10-22T03:28:07.867Z,17.95
2016-10-22T03:28:25.121Z,17.94
2016-10-22T03:28:41.886Z,17.88
2016-10-22T03:28:58.627Z,17.92
2016-10-22T03:29:15.370Z,17.94
2016-10-22T03:29:32.140Z,17.87
2016-10-22T03:29:48.968Z,18.06
2016-10-22T03:30:05.725Z,17.91
2016-10-22T03:30:22.444Z,17.88
2016-10-22T03:30:39.183Z,17.96
2016-10-22T03:30:55.889Z,17.92
2016-10-22T03:31:12.628Z,17.92
2016-10-22T03:31:29.364Z,18.14
2016-10-22T03:31:46.091Z,18.04
2016-10-22T03:32:03.324Z,18.03
2016-10-22T03:32:20.042Z,17.88
2016-10-22T03:32:36.763Z,17.92
2016-10-22T03:32:54.028Z,17.91
2016-10-22T03:33:10.782Z,17.96
2016-10-22T03:33:27.528Z,17.98
2016-10-22T03:33:44.261Z,17.95
2016-10-22T03:34:01.495Z,17.94
2016-10-22T03:34:18.202Z,18.04
2016-10-22T03:34:34.937Z,18.1
2016-10-22T03:34:51.671Z,18.1
2016-10-22T03:35:08.933Z,18.09
2016-10-22T03:35:25.662Z,17.98
2016-10-22T03:35:42.400Z,17.95
2016-10-22T03:35:59.671Z,17.96
2016-10-22T03:36:16.933Z,18.02
2016-10-22T03:36:33.691Z,18.02
2016-10-22T03:36:51.473Z,17.87
2016-10-22T03:37:08.729Z,17.87
2016-10-22T03:37:25.945Z,17.87
2016-10-22T03:37:42.696Z,17.79
2016-10-22T03:37:59.970Z,17.88